createdAt,value
2022-09-26T00:01:05.198Z,12.13
2022-09-26T00:02:08.376Z,12.14
2022-09-26T00:03:12.230Z,12.15
2022-09-26T00:04:23.731Z,12.15
2022-09-26T00:05:27.432Z,12.14
2022-09-26T00:06:30.366Z,12.14
2022-09-26T00:07:33.277Z,12.14
2022-09-26T00:08:37.667Z,12.12
2022-09-26T00:09:40.462Z,12.13
2022-09-26T00:10:43.189Z,12.12
2022-09-26T00:11:46.907Z,12.15
2022-09-26T00:12:49.672Z,12.23
2022-09-26T00:13:55.591Z,12.21
2022-09-26T00:14:58.416Z,12.17
2022-09-26T00:16:01.653Z,12.16
2022-09-26T00:17:04.363Z,12.12
2022-09-26T00:18:07.152Z,12.12
2022-09-26T00:19:09.888Z,12.11
2022-09-26T00:20:12.541Z,12.10
2022-09-26T00:21:15.896Z,12.09
2022-09-26T00:22:18.512Z,12.11
2022-09-26T00:23:21.135Z,12.09
2022-09-26T00:24:23.863Z,12.10
2022-09-26T00:25:27.127Z,12.07
2022-09-26T00:26:32.793Z,12.10
2022-09-26T00:27:35.455Z,12.09
2022-09-26T00:28:38.553Z,12.09
2022-09-26T00:29:41.337Z,12.06
2022-09-26T00:30:44.971Z,12.03
2022-09-26T00:31:49.405Z,12.02
2022-09-26T00:32:52.313Z,12.04
2022-09-26T00:33:55.371Z,12.04
2022-09-26T00:34:58.038Z,12.04
2022-09-26T00:36:01.017Z,12.08
2022-09-26T00:37:03.713Z,12.08
2022-09-26T00:38:06.598Z,12.10
2022-09-26T00:39:11.759Z,12.09
2022-09-26T00:40:14.599Z,12.06
2022-09-26T00:41:17.545Z,12.05
2022-09-26T00:42:23.251Z,12.05
2022-09-26T00:43:39.957Z,12.08
2022-09-26T00:44:50.579Z,12.07
2022-09-26T00:45:56.381Z,12.05
2022-09-26T00:46:59.367Z,12.05
2022-09-26T00:48:06.604Z,12.04
2022-09-26T00:49:24.016Z,12.07
2022-09-26T00:50:35.527Z,12.09
2022-09-26T00:51:42.438Z,12.07
2022-09-26T00:53:06.401Z,12.04
2022-09-26T00:54:15.586Z,12.04
2022-09-26T00:55:24.233Z,12.08
2022-09-26T00:56:34.269Z,12.07
2022-09-26T00:57:53.488Z,12.08
2022-09-26T00:59:10.648Z,12.09
2022-09-26T01:00:15.345Z,12.16
2022-09-26T01:01:19.631Z,12.24
2022-09-26T01:02:26.268Z,12.26
2022-09-26T01:03:31.788Z,12.24
2022-09-26T01:04:38.499Z,12.20
2022-09-26T01:05:41.640Z,12.16
2022-09-26T01:06:45.839Z,12.18
2022-09-26T01:07:50.707Z,12.18
2022-09-26T01:08:57.818Z,12.15
2022-09-26T01:10:02.784Z,12.14
2022-09-26T01:11:07.003Z,12.16
2022-09-26T01:12:11.003Z,12.15
2022-09-26T01:13:13.906Z,12.14
2022-09-26T01:14:16.914Z,12.18
2022-09-26T01:15:20.510Z,12.21
2022-09-26T01:16:23.748Z,12.18
2022-09-26T01:17:27.701Z,12.17
2022-09-26T01:18:31.287Z,12.17
2022-09-26T01:19:54.985Z,12.15
2022-09-26T01:21:35.076Z,12.15
2022-09-26T01:23:05.959Z,12.15
2022-09-26T01:24:17.607Z,12.16
2022-09-26T01:25:41.561Z,12.17
2022-09-26T01:27:15.200Z,12.17
2022-09-26T01:28:23.756Z,12.20
2022-09-26T01:29:59.557Z,12.16
2022-09-26T01:31:22.709Z,12.18
2022-09-26T01:33:02.995Z,12.16
2022-09-26T01:34:27.520Z,12.18
2022-09-26T01:36:00.649Z,12.20
2022-09-26T01:37:10.238Z,12.20
2022-09-26T01:38:38.136Z,12.27
2022-09-26T01:39:55.881Z,12.36
2022-09-26T01:41:36.806Z,12.26
2022-09-26T01:43:25.313Z,12.22
2022-09-26T01:44:55.302Z,12.19
2022-09-26T01:46:22.732Z,12.20
2022-09-26T01:47:39.601Z,12.18
2022-09-26T01:48:53.422Z,12.18
2022-09-26T01:50:21.388Z,12.17
2022-09-26T01:51:33.743Z,12.17
2022-09-26T01:52:55.936Z,12.16
2022-09-26T01:54:06.627Z,12.14
2022-09-26T01:55:41.549Z,12.16
2022-09-26T01:56:48.240Z,12.18
2022-09-26T01:57:53.651Z,12.18
2022-09-26T01:59:15.076Z,12.21
2022-09-26T02:00:18.886Z,12.22
2022-09-26T02:01:25.888Z,12.25
2022-09-26T02:02:36.256Z,12.25
2022-09-26T02:03:56.459Z,12.23
2022-09-26T02:05:17.584Z,12.24
2022-09-26T02:06:29.472Z,12.22
2022-09-26T02:07:41.136Z,12.21
2022-09-26T02:08:46.605Z,12.23
2022-09-26T02:09:59.509Z,12.21
2022-09-26T02:11:12.646Z,12.34
2022-09-26T02:12:23.873Z,12.47
2022-09-26T02:13:47.170Z,12.37
2022-09-26T02:14:53.205Z,12.29
2022-09-26T02:16:02.343Z,12.26
2022-09-26T02:17:10.757Z,12.24
2022-09-26T02:18:24.202Z,12.25
2022-09-26T02:19:31.041Z,12.30
2022-09-26T02:20:38.197Z,12.33
2022-09-26T02:21:42.805Z,12.33
2022-09-26T02:22:46.095Z,12.30
2022-09-26T02:23:51.048Z,12.29
2022-09-26T02:24:54.184Z,12.27
2022-09-26T02:25:58.297Z,12.24
2022-09-26T02:27:00.966Z,12.23
2022-09-26T02:28:03.917Z,12.24
2022-09-26T02:29:07.581Z,12.30
2022-09-26T02:30:11.069Z,12.36
2022-09-26T02:31:21.420Z,12.31
2022-09-26T02:32:29.814Z,12.32
2022-09-26T02:33:32.530Z,12.32
2022-09-26T02:34:35.234Z,12.27
2022-09-26T02:35:56.684Z,12.36
2022-09-26T02:37:01.515Z,12.36
2022-09-26T02:38:05.807Z,12.32
2022-09-26T02:39:11.351Z,12.27
2022-09-26T02:40:14.209Z,12.31
2022-09-26T02:41:29.227Z,12.29
2022-09-26T02:42:58.372Z,12.28
2022-09-26T02:44:26.101Z,12.23
2022-09-26T02:45:45.762Z,12.27
2022-09-26T02:47:07.107Z,12.26
2022-09-26T02:48:15.527Z,12.25
2022-09-26T02:49:36.842Z,12.23
2022-09-26T02:50:58.833Z,12.27
2022-09-26T02:52:18.416Z,12.24
2022-09-26T02:54:01.934Z,12.35
2022-09-26T02:55:04.522Z,12.36
2022-09-26T02:56:34.809Z,12.32
2022-09-26T02:57:48.341Z,12.26
2022-09-26T02:58:59.899Z,12.23
2022-09-26T03:00:09.778Z,12.20
2022-09-26T03:01:29.585Z,12.20
2022-09-26T03:03:22.274Z,12.15
2022-09-26T03:04:43.537Z,12.13
2022-09-26T03:05:48.695Z,12.17
2022-09-26T03:06:55.691Z,12.18
2022-09-26T03:08:13.564Z,12.18
2022-09-26T03:09:19.477Z,12.15
2022-09-26T03:10:24.451Z,12.15
2022-09-26T03:11:29.526Z,12.19
2022-09-26T03:12:34.260Z,12.20
2022-09-26T03:13:39.760Z,12.22
2022-09-26T03:14:44.399Z,12.18
2022-09-26T03:15:53.295Z,12.12
2022-09-26T03:16:56.402Z,12.13
2022-09-26T03:18:01.575Z,12.17
2022-09-26T03:19:17.358Z,12.15
2022-09-26T03:20:21.975Z,12.11
2022-09-26T03:21:25.714Z,12.15
2022-09-26T03:22:28.478Z,12.10
2022-09-26T03:23:31.234Z,12.06
2022-09-26T03:24:37.018Z,12.02
2022-09-26T03:25:39.748Z,12.09
2022-09-26T03:26:43.141Z,12.09
2022-09-26T03:27:47.408Z,12.05
2022-09-26T03:28:52.184Z,12.14
2022-09-26T03:29:54.963Z,12.07
2022-09-26T03:30:57.690Z,12.05
2022-09-26T03:32:01.583Z,12.06
2022-09-26T03:33:04.618Z,12.06
2022-09-26T03:34:07.396Z,12.08
2022-09-26T03:35:10.800Z,12.05
2022-09-26T03:36:13.624Z,12.01
2022-09-26T03:37:17.249Z,12.07
2022-09-26T03:38:19.910Z,12.09
2022-09-26T03:39:22.875Z,12.07
2022-09-26T03:40:25.759Z,12.06
2022-09-26T03:41:28.381Z,12.02
2022-09-26T03:42:33.969Z,12.03
2022-09-26T03:43:37.110Z,12.06
2022-09-26T03:44:39.870Z,12.02
2022-09-26T03:45:42.540Z,12.01
2022-09-26T03:46:46.071Z,12.01
2022-09-26T03:47:48.837Z,11.98
2022-09-26T03:48:51.759Z,12.00
2022-09-26T03:49:54.875Z,12.01
2022-09-26T03:51:09.356Z,12.08
2022-09-26T03:52:12.573Z,12.04
2022-09-26T03:53:15.180Z,11.99
2022-09-26T03:54:18.021Z,12.00
2022-09-26T03:55:20.822Z,11.98
2022-09-26T03:56:23.702Z,11.98
2022-09-26T03:57:26.487Z,11.95
2022-09-26T03:58:29.304Z,11.95
2022-09-26T03:59:31.942Z,11.94
2022-09-26T04:00:34.998Z,11.94
2022-09-26T04:01:37.920Z,11.95
2022-09-26T04:02:40.655Z,11.95
2022-09-26T04:03:50.075Z,12.00
2022-09-26T04:04:53.350Z,12.09
2022-09-26T04:05:56.096Z,12.08
2022-09-26T04:06:59.441Z,12.05
2022-09-26T04:08:03.246Z,12.02
2022-09-26T04:09:06.078Z,11.98
2022-09-26T04:10:10.019Z,11.98
2022-09-26T04:11:16.537Z,12.02
2022-09-26T04:12:20.932Z,12.00
2022-09-26T04:13:49.475Z,12.00
2022-09-26T04:14:46.308Z,11.99
2022-09-26T04:15:56.120Z,11.98
2022-09-26T04:16:58.751Z,12.00
2022-09-26T04:18:01.414Z,12.03
2022-09-26T04:19:04.473Z,12.09
2022-09-26T04:20:07.404Z,12.08
2022-09-26T04:21:14.326Z,12.08
2022-09-26T04:22:17.270Z,12.07
2022-09-26T04:23:21.659Z,12.02
2022-09-26T04:24:24.339Z,11.99
2022-09-26T04:25:26.981Z,12.01
2022-09-26T04:26:29.949Z,12.02
2022-09-26T04:27:32.517Z,12.01
2022-09-26T04:28:35.626Z,12.02
2022-09-26T04:29:38.328Z,12.02
2022-09-26T04:30:41.155Z,12.00
2022-09-26T04:31:43.991Z,11.97
2022-09-26T04:32:46.801Z,11.95
2022-09-26T04:33:49.873Z,12.00
2022-09-26T04:34:52.507Z,11.95
2022-09-26T04:35:55.848Z,11.95
2022-09-26T04:37:00.840Z,11.96
2022-09-26T04:38:05.057Z,11.96
2022-09-26T04:39:07.731Z,11.94
2022-09-26T04:40:11.439Z,11.95
2022-09-26T04:41:20.238Z,11.94
2022-09-26T04:42:25.312Z,11.93
2022-09-26T04:43:27.927Z,11.95
2022-09-26T04:44:30.587Z,11.94
2022-09-26T04:45:33.237Z,11.94
2022-09-26T04:46:36.259Z,11.95
2022-09-26T04:47:39.133Z,11.94
2022-09-26T04:48:41.872Z,11.94
2022-09-26T04:49:44.622Z,11.94
2022-09-26T04:50:47.778Z,11.95
2022-09-26T04:51:50.462Z,11.97
2022-09-26T04:52:53.212Z,11.96
2022-09-26T04:53:56.282Z,12.04
2022-09-26T04:54:59.013Z,12.03
2022-09-26T04:56:02.202Z,12.02
2022-09-26T04:57:05.906Z,12.11
2022-09-26T04:58:08.584Z,12.11
2022-09-26T04:59:11.237Z,12.07
2022-09-26T05:00:14.651Z,12.02
2022-09-26T05:01:20.103Z,12.03
2022-09-26T05:02:22.963Z,12.02
2022-09-26T05:03:25.657Z,12.01
2022-09-26T05:04:28.218Z,12.03
2022-09-26T05:05:31.481Z,12.04
2022-09-26T05:06:34.224Z,12.03
2022-09-26T05:07:41.113Z,12.02
2022-09-26T05:08:49.351Z,12.01
2022-09-26T05:09:53.367Z,12.01
2022-09-26T05:10:57.762Z,12.00
2022-09-26T05:12:00.489Z,12.01
2022-09-26T05:13:03.701Z,12.02
2022-09-26T05:14:09.107Z,12.04
2022-09-26T05:15:11.804Z,12.02
2022-09-26T05:16:14.739Z,12.01
2022-09-26T05:17:17.283Z,12.02
2022-09-26T05:18:20.403Z,12.03
2022-09-26T05:19:23.113Z,12.07
2022-09-26T05:20:31.924Z,12.08
2022-09-26T05:21:35.067Z,12.09
2022-09-26T05:22:37.903Z,12.10
2022-09-26T05:23:58.936Z,12.08
2022-09-26T05:25:20.629Z,12.10
2022-09-26T05:26:46.381Z,12.08
2022-09-26T05:27:49.162Z,12.09
2022-09-26T05:28:54.769Z,12.09
2022-09-26T05:29:57.373Z,12.09
2022-09-26T05:31:00.286Z,12.09
2022-09-26T05:32:03.064Z,12.12
2022-09-26T05:33:06.135Z,12.14
2022-09-26T05:34:15.490Z,12.19
2022-09-26T05:35:21.352Z,12.18
2022-09-26T05:36:25.174Z,12.16
2022-09-26T05:37:27.963Z,12.17
2022-09-26T05:38:30.559Z,12.15
2022-09-26T05:39:51.599Z,12.16
2022-09-26T05:40:57.507Z,12.18
2022-09-26T05:42:00.290Z,12.17
2022-09-26T05:43:04.139Z,12.17
2022-09-26T05:44:06.760Z,12.17
2022-09-26T05:45:09.941Z,12.19
2022-09-26T05:46:12.977Z,12.20
2022-09-26T05:47:17.262Z,12.19
2022-09-26T05:48:20.999Z,12.19
2022-09-26T05:49:24.145Z,12.20
2022-09-26T05:50:27.423Z,12.23
2022-09-26T05:51:30.172Z,12.25
2022-09-26T05:52:32.804Z,12.24
2022-09-26T05:53:35.765Z,12.23
2022-09-26T05:54:38.390Z,12.24
2022-09-26T05:55:41.473Z,12.24
2022-09-26T05:56:44.629Z,12.21
2022-09-26T05:57:55.335Z,12.21
2022-09-26T05:58:57.919Z,12.22
2022-09-26T06:00:00.718Z,12.21
2022-09-26T06:01:06.635Z,12.23
2022-09-26T06:02:11.230Z,12.22
2022-09-26T06:03:15.729Z,12.23
2022-09-26T06:04:18.471Z,12.19
2022-09-26T06:05:21.978Z,12.18
2022-09-26T06:06:25.235Z,12.18
2022-09-26T06:07:27.957Z,12.19
2022-09-26T06:08:31.301Z,12.17
2022-09-26T06:09:33.959Z,12.15
2022-09-26T06:10:39.152Z,12.17
2022-09-26T06:11:41.900Z,12.18
2022-09-26T06:12:48.793Z,12.18
2022-09-26T06:13:53.725Z,12.21
2022-09-26T06:14:56.565Z,12.22
2022-09-26T06:16:08.183Z,12.25
2022-09-26T06:17:10.980Z,12.25
2022-09-26T06:18:13.741Z,12.25
2022-09-26T06:19:20.608Z,12.26
2022-09-26T06:20:25.770Z,12.26
2022-09-26T06:21:28.391Z,12.29
2022-09-26T06:22:34.237Z,12.31
2022-09-26T06:23:36.801Z,12.35
2022-09-26T06:24:39.630Z,12.36
2022-09-26T06:25:43.166Z,12.35
2022-09-26T06:26:45.736Z,12.39
2022-09-26T06:27:48.990Z,12.41
2022-09-26T06:29:00.963Z,12.39
2022-09-26T06:30:03.791Z,12.38
2022-09-26T06:31:15.333Z,12.37
2022-09-26T06:32:18.013Z,12.39
2022-09-26T06:33:21.352Z,12.42
2022-09-26T06:34:24.217Z,12.41
2022-09-26T06:35:26.857Z,12.41
2022-09-26T06:36:29.569Z,12.42
2022-09-26T06:37:32.348Z,12.42
2022-09-26T06:38:35.987Z,12.45
2022-09-26T06:39:38.735Z,12.45
2022-09-26T06:40:41.517Z,12.46
2022-09-26T06:41:44.188Z,12.46
2022-09-26T06:42:46.947Z,12.47
2022-09-26T06:43:50.180Z,12.46
2022-09-26T06:44:52.821Z,12.46
2022-09-26T06:45:55.491Z,12.46
2022-09-26T06:47:01.141Z,12.47
2022-09-26T06:48:03.999Z,12.48
2022-09-26T06:49:07.047Z,12.50
2022-09-26T06:50:10.563Z,12.56
2022-09-26T06:51:14.405Z,12.54
2022-09-26T06:52:16.973Z,12.52
2022-09-26T06:53:19.735Z,12.53
2022-09-26T06:54:22.441Z,12.55
2022-09-26T06:55:24.984Z,12.57
2022-09-26T06:56:27.781Z,12.59
2022-09-26T06:57:41.828Z,12.61
2022-09-26T06:58:44.611Z,12.65
2022-09-26T06:59:47.239Z,12.63
2022-09-26T07:00:50.099Z,12.64
2022-09-26T07:01:53.380Z,12.62
2022-09-26T07:02:56.727Z,12.62
2022-09-26T07:03:59.525Z,12.63
2022-09-26T07:05:03.696Z,12.68
2022-09-26T07:06:06.475Z,12.72
2022-09-26T07:07:09.581Z,12.72
2022-09-26T07:08:12.623Z,12.71
2022-09-26T07:09:15.459Z,12.71
2022-09-26T07:10:19.499Z,12.73
2022-09-26T07:12:49.023Z,12.78
2022-09-26T07:13:53.275Z,12.86
2022-09-26T07:14:56.013Z,12.93
2022-09-26T07:16:01.673Z,12.93
2022-09-26T07:17:04.390Z,12.95
2022-09-26T07:18:07.283Z,12.93
2022-09-26T07:19:12.337Z,12.99
2022-09-26T07:20:19.328Z,12.98
2022-09-26T07:21:21.989Z,12.99
2022-09-26T07:22:24.773Z,12.98
2022-09-26T07:23:27.295Z,12.97
2022-09-26T07:24:30.029Z,13.04
2022-09-26T07:25:33.604Z,13.06
2022-09-26T07:26:36.435Z,13.03
2022-09-26T07:27:40.586Z,13.06
2022-09-26T07:28:43.293Z,13.08
2022-09-26T07:29:47.778Z,13.07
2022-09-26T07:30:50.492Z,13.11
2022-09-26T07:31:53.281Z,13.16
2022-09-26T07:33:03.935Z,13.11
2022-09-26T07:34:08.961Z,13.06
2022-09-26T07:35:12.222Z,13.08
2022-09-26T07:36:16.042Z,13.10
2022-09-26T07:37:19.024Z,13.08
2022-09-26T07:38:22.018Z,13.04
2022-09-26T07:39:24.714Z,12.99
2022-09-26T07:40:28.437Z,12.97
2022-09-26T07:41:31.273Z,13.06
2022-09-26T07:42:34.438Z,13.12
2022-09-26T07:44:21.710Z,13.08
2022-09-26T07:46:41.087Z,13.01
2022-09-26T07:48:02.106Z,12.98
2022-09-26T07:49:23.397Z,12.95
2022-09-26T07:50:25.989Z,13.08
2022-09-26T07:51:28.609Z,13.27
2022-09-26T07:52:31.263Z,13.17
2022-09-26T07:53:34.103Z,13.13
2022-09-26T07:54:37.150Z,13.12
2022-09-26T07:55:59.884Z,13.09
2022-09-26T07:57:05.020Z,13.14
2022-09-26T07:58:07.700Z,13.06
2022-09-26T07:59:10.351Z,13.02
2022-09-26T08:00:15.065Z,13.05
2022-09-26T08:01:18.538Z,13.03
2022-09-26T08:02:35.930Z,13.03
2022-09-26T08:03:43.325Z,13.05
2022-09-26T08:04:45.929Z,13.07
2022-09-26T08:05:48.599Z,13.09
2022-09-26T08:06:51.427Z,13.09
2022-09-26T08:07:54.170Z,13.13
2022-09-26T08:08:58.336Z,13.09
2022-09-26T08:10:03.425Z,13.10
2022-09-26T08:11:15.777Z,13.14
2022-09-26T08:12:18.502Z,13.15
2022-09-26T08:13:21.193Z,13.13
2022-09-26T08:14:23.852Z,13.14
2022-09-26T08:15:26.498Z,13.16
2022-09-26T08:16:29.656Z,13.16
2022-09-26T08:17:34.952Z,13.19
2022-09-26T08:18:37.654Z,13.23
2022-09-26T08:19:40.430Z,13.28
2022-09-26T08:20:47.418Z,13.27
2022-09-26T08:21:50.201Z,13.28
2022-09-26T08:22:55.617Z,13.27
2022-09-26T08:23:58.259Z,13.33
2022-09-26T08:25:00.903Z,13.37
2022-09-26T08:26:07.382Z,13.36
2022-09-26T08:27:10.042Z,13.39
2022-09-26T08:28:13.111Z,13.38
2022-09-26T08:29:15.695Z,13.42
2022-09-26T08:30:18.304Z,13.43
2022-09-26T08:31:21.101Z,13.36
2022-09-26T08:32:24.051Z,13.31
2022-09-26T08:33:27.332Z,13.32
2022-09-26T08:34:32.288Z,13.36
2022-09-26T08:35:41.516Z,13.33
2022-09-26T08:36:44.192Z,13.32
2022-09-26T08:37:47.232Z,13.30
2022-09-26T08:38:50.504Z,13.31
2022-09-26T08:39:53.399Z,13.33
2022-09-26T08:41:02.120Z,13.44
2022-09-26T08:42:07.667Z,13.45
2022-09-26T08:43:41.644Z,13.42
2022-09-26T08:45:02.771Z,13.43
2022-09-26T08:46:53.209Z,13.47
2022-09-26T08:48:27.227Z,13.45
2022-09-26T08:49:54.788Z,13.50
2022-09-26T08:51:07.320Z,13.70
2022-09-26T08:52:37.349Z,13.68
2022-09-26T08:53:50.806Z,13.63
2022-09-26T08:54:56.672Z,13.62
2022-09-26T08:56:01.471Z,13.61
2022-09-26T08:57:16.094Z,13.62
2022-09-26T08:58:32.273Z,13.64
2022-09-26T08:59:43.977Z,13.65
2022-09-26T09:00:51.800Z,13.69
2022-09-26T09:01:59.770Z,13.70
2022-09-26T09:03:17.680Z,13.75
2022-09-26T09:04:53.666Z,13.68
2022-09-26T09:06:04.958Z,13.68
2022-09-26T09:07:23.034Z,13.70
2022-09-26T09:08:48.480Z,13.77
2022-09-26T09:09:54.843Z,13.78
2022-09-26T09:11:20.661Z,13.82
2022-09-26T09:12:48.096Z,13.85
2022-09-26T09:14:26.954Z,13.88
2022-09-26T09:15:54.367Z,13.94
2022-09-26T09:17:10.256Z,14.01
2022-09-26T09:18:31.885Z,14.12
2022-09-26T09:19:59.355Z,14.16
2022-09-26T09:21:13.637Z,14.23
2022-09-26T09:22:26.656Z,14.34
2022-09-26T09:23:34.754Z,14.44
2022-09-26T09:24:58.746Z,14.44
2022-09-26T09:28:15.836Z,14.50
2022-09-26T09:29:34.323Z,14.47
2022-09-26T09:30:56.815Z,14.47
2022-09-26T09:32:03.355Z,14.47
2022-09-26T09:34:00.626Z,14.45
2022-09-26T09:35:03.781Z,14.49
2022-09-26T09:36:11.034Z,14.60
2022-09-26T09:37:21.994Z,14.65
2022-09-26T09:38:30.409Z,14.73
2022-09-26T09:39:40.619Z,14.75
2022-09-26T09:40:51.120Z,14.83
2022-09-26T09:41:58.566Z,14.83
2022-09-26T09:43:15.620Z,14.90
2022-09-26T09:44:46.401Z,14.85
2022-09-26T09:45:51.801Z,14.89
2022-09-26T09:46:54.507Z,14.92
2022-09-26T09:47:58.259Z,14.96
2022-09-26T09:49:10.160Z,14.97
2022-09-26T09:50:36.636Z,15.04
2022-09-26T09:51:57.722Z,15.05
2022-09-26T09:53:27.709Z,15.09
2022-09-26T09:54:45.364Z,15.12
2022-09-26T09:55:53.290Z,15.13
2022-09-26T09:57:26.510Z,15.12
2022-09-26T09:58:35.174Z,15.17
2022-09-26T09:59:43.507Z,15.22
2022-09-26T10:01:18.774Z,15.21
2022-09-26T10:02:50.828Z,15.19
2022-09-26T10:04:03.619Z,15.10
2022-09-26T10:05:30.796Z,15.07
2022-09-26T10:06:45.314Z,15.07
2022-09-26T10:07:54.191Z,15.09
2022-09-26T10:08:56.944Z,15.11
2022-09-26T10:09:59.540Z,15.18
2022-09-26T10:11:21.368Z,15.11
2022-09-26T10:12:29.033Z,15.03
2022-09-26T10:13:33.115Z,15.03
2022-09-26T10:14:55.590Z,15.11
2022-09-26T10:16:05.375Z,15.10
2022-09-26T10:17:10.902Z,15.10
2022-09-26T10:18:25.839Z,15.15
2022-09-26T10:19:37.675Z,15.23
2022-09-26T10:20:57.474Z,15.30
2022-09-26T10:22:00.124Z,15.40
2022-09-26T10:23:09.261Z,15.39
2022-09-26T10:24:27.799Z,15.41
2022-09-26T10:25:30.501Z,15.48
2022-09-26T10:26:35.226Z,15.49
2022-09-26T10:27:40.602Z,15.55
2022-09-26T10:28:59.302Z,15.64
2022-09-26T10:30:26.048Z,15.83
2022-09-26T10:31:42.889Z,15.99
2022-09-26T10:32:52.905Z,16.11
2022-09-26T10:34:01.215Z,16.24
2022-09-26T10:35:19.685Z,16.39
2022-09-26T10:36:31.256Z,16.46
2022-09-26T10:37:37.286Z,16.58
2022-09-26T10:39:10.904Z,16.70
2022-09-26T10:40:46.077Z,16.83
2022-09-26T10:41:49.386Z,16.96
2022-09-26T10:42:52.122Z,17.05
2022-09-26T10:43:56.611Z,17.23
2022-09-26T10:45:13.909Z,17.32
2022-09-26T10:46:20.928Z,17.36
2022-09-26T10:47:26.773Z,17.50
2022-09-26T10:48:58.087Z,17.54
2022-09-26T10:50:10.695Z,17.60
2022-09-26T10:51:38.199Z,17.58
2022-09-26T10:52:47.476Z,17.50
2022-09-26T10:53:55.192Z,17.40
2022-09-26T10:55:06.239Z,17.36
2022-09-26T10:56:14.846Z,17.31
2022-09-26T10:57:21.840Z,17.28
2022-09-26T10:58:29.870Z,17.21
2022-09-26T10:59:36.341Z,17.15
2022-09-26T11:00:43.824Z,16.99
2022-09-26T11:01:50.654Z,16.87
2022-09-26T11:02:53.410Z,16.90
2022-09-26T11:04:10.425Z,16.77
2022-09-26T11:05:35.531Z,16.68
2022-09-26T11:06:48.298Z,16.52
2022-09-26T11:07:52.661Z,16.36
2022-09-26T11:09:02.584Z,16.35
2022-09-26T11:10:22.749Z,16.39
2022-09-26T11:11:26.852Z,16.35
2022-09-26T11:12:33.732Z,16.29
2022-09-26T11:13:50.283Z,16.30
2022-09-26T11:15:14.073Z,16.27
2022-09-26T11:16:20.687Z,16.27
2022-09-26T11:17:39.633Z,16.18
2022-09-26T11:18:43.270Z,16.17
2022-09-26T11:19:57.767Z,16.13
2022-09-26T11:21:28.165Z,16.11
2022-09-26T11:22:38.094Z,16.13
2022-09-26T11:23:45.227Z,16.19
2022-09-26T11:25:14.951Z,16.19
2022-09-26T11:26:36.250Z,16.19
2022-09-26T11:27:49.193Z,16.25
2022-09-26T11:29:04.323Z,16.12
2022-09-26T11:30:19.576Z,16.14
2022-09-26T11:31:43.139Z,16.07
2022-09-26T11:32:50.247Z,15.93
2022-09-26T11:33:54.389Z,15.89
2022-09-26T11:35:03.248Z,15.88
2022-09-26T11:36:29.835Z,15.86
2022-09-26T11:38:13.872Z,15.87
2022-09-26T11:39:23.241Z,15.89
2022-09-26T11:40:38.084Z,16.03
2022-09-26T11:42:18.881Z,16.13
2022-09-26T11:43:45.209Z,16.41
2022-09-26T11:45:14.346Z,16.55
2022-09-26T11:46:41.991Z,16.80
2022-09-26T11:48:09.271Z,16.81
2022-09-26T11:49:59.418Z,16.91
2022-09-26T11:51:43.576Z,17.12
2022-09-26T11:52:59.417Z,17.33
2022-09-26T11:54:30.035Z,17.30
2022-09-26T11:55:41.454Z,17.26
2022-09-26T11:57:02.878Z,17.18
2022-09-26T11:58:05.514Z,17.10
2022-09-26T11:59:34.896Z,16.93
2022-09-26T12:01:00.672Z,16.79
2022-09-26T12:02:33.698Z,16.68
2022-09-26T12:03:53.902Z,16.77
2022-09-26T12:05:13.875Z,16.74
2022-09-26T12:06:27.887Z,16.69
2022-09-26T12:07:43.960Z,16.58
2022-09-26T12:09:08.221Z,16.51
2022-09-26T12:10:43.270Z,16.40
2022-09-26T12:12:10.845Z,16.26
2022-09-26T12:13:35.476Z,16.22
2022-09-26T12:14:50.742Z,16.34
2022-09-26T12:16:13.115Z,16.36
2022-09-26T12:17:49.891Z,16.36
2022-09-26T12:19:21.117Z,16.49
2022-09-26T12:20:35.260Z,16.67
2022-09-26T12:22:24.241Z,16.74
2022-09-26T12:23:43.952Z,16.86
2022-09-26T12:25:20.373Z,17.07
2022-09-26T12:26:23.792Z,17.08
2022-09-26T12:27:43.925Z,17.21
2022-09-26T12:29:23.908Z,17.31
2022-09-26T12:30:52.590Z,17.28
2022-09-26T12:32:10.025Z,17.33
2022-09-26T12:35:07.484Z,17.35
2022-09-26T12:36:40.683Z,17.29
2022-09-26T12:38:07.325Z,17.26
2022-09-26T12:39:34.924Z,17.29
2022-09-26T12:40:49.953Z,17.26
2022-09-26T12:42:25.580Z,17.21
2022-09-26T12:44:09.557Z,17.19
2022-09-26T12:45:39.089Z,17.20
2022-09-26T12:46:49.158Z,17.20
2022-09-26T12:48:09.961Z,17.15
2022-09-26T12:49:21.654Z,17.14
2022-09-26T12:50:31.305Z,17.17
2022-09-26T12:51:55.721Z,17.16
2022-09-26T12:53:18.514Z,17.15
2022-09-26T12:54:44.097Z,17.06
2022-09-26T12:56:09.357Z,17.14
2022-09-26T12:57:38.690Z,17.13
2022-09-26T12:59:07.696Z,17.07
2022-09-26T13:00:23.384Z,16.95
2022-09-26T13:01:43.664Z,16.92
2022-09-26T13:03:08.103Z,16.96
2022-09-26T13:04:17.838Z,16.93
2022-09-26T13:05:38.183Z,17.00
2022-09-26T13:07:18.985Z,16.96
2022-09-26T13:08:57.553Z,16.97
2022-09-26T13:10:07.601Z,17.10
2022-09-26T13:11:32.793Z,17.20
2022-09-26T13:12:50.696Z,17.27
2022-09-26T13:14:27.329Z,17.40
2022-09-26T13:15:40.231Z,17.56
2022-09-26T13:16:49.293Z,17.57
2022-09-26T13:17:59.284Z,17.66
2022-09-26T13:19:47.157Z,17.68
2022-09-26T13:20:55.414Z,17.64
2022-09-26T13:22:03.103Z,17.66
2022-09-26T13:23:18.224Z,17.73
2022-09-26T13:24:33.083Z,17.80
2022-09-26T13:25:49.922Z,17.74
2022-09-26T13:27:09.166Z,17.69
2022-09-26T13:28:14.301Z,17.73
2022-09-26T13:29:29.361Z,17.67
2022-09-26T13:30:44.941Z,17.67
2022-09-26T13:31:56.261Z,17.72
2022-09-26T13:33:07.979Z,17.76
2022-09-26T13:34:17.122Z,17.74
2022-09-26T13:35:26.211Z,17.73
2022-09-26T13:36:31.561Z,17.68
2022-09-26T13:38:14.430Z,17.64
2022-09-26T13:39:29.508Z,17.48
2022-09-26T13:40:41.650Z,17.42
2022-09-26T13:41:56.769Z,17.35
2022-09-26T13:43:43.809Z,17.35
2022-09-26T13:45:14.837Z,17.28
2022-09-26T13:46:29.302Z,17.19
2022-09-26T13:47:49.387Z,17.14
2022-09-26T13:49:34.082Z,17.08
2022-09-26T13:51:14.014Z,17.09
2022-09-26T13:52:26.898Z,17.08
2022-09-26T13:53:40.635Z,17.12
2022-09-26T13:54:44.233Z,17.12
2022-09-26T13:56:25.869Z,17.11
2022-09-26T13:57:34.889Z,17.09
2022-09-26T13:58:40.579Z,17.09
2022-09-26T14:01:27.047Z,17.18
2022-09-26T14:02:31.939Z,17.17
2022-09-26T14:03:39.626Z,17.15
2022-09-26T14:04:46.925Z,17.04
2022-09-26T14:05:51.980Z,17.00
2022-09-26T14:07:25.525Z,16.95
2022-09-26T14:08:54.988Z,16.89
2022-09-26T14:10:09.405Z,16.88
2022-09-26T14:11:35.333Z,16.81
2022-09-26T14:12:56.694Z,16.77
2022-09-26T14:14:21.610Z,16.77
2022-09-26T14:15:51.172Z,16.78
2022-09-26T14:17:03.194Z,16.77
2022-09-26T14:18:28.052Z,16.85
2022-09-26T14:19:46.775Z,16.86
2022-09-26T14:21:00.061Z,16.83
2022-09-26T14:22:18.937Z,16.79
2022-09-26T14:23:46.706Z,16.77
2022-09-26T14:24:50.933Z,16.76
2022-09-26T14:25:55.698Z,16.77
2022-09-26T14:27:03.646Z,16.80
2022-09-26T14:28:38.267Z,16.87
2022-09-26T14:29:42.833Z,16.84
2022-09-26T14:31:24.632Z,16.87
2022-09-26T14:32:37.166Z,16.92
2022-09-26T14:33:40.748Z,16.94
2022-09-26T14:34:59.548Z,16.95
2022-09-26T14:36:25.267Z,16.95
2022-09-26T14:37:28.196Z,16.96
2022-09-26T14:38:31.603Z,16.96
2022-09-26T14:39:41.569Z,16.91
2022-09-26T14:40:53.166Z,16.89
2022-09-26T14:41:56.758Z,16.88
2022-09-26T14:43:17.427Z,16.89
2022-09-26T14:44:21.725Z,16.99
2022-09-26T14:45:32.803Z,16.95
2022-09-26T14:46:36.377Z,16.92
2022-09-26T14:48:01.297Z,16.88
2022-09-26T14:49:07.299Z,16.85
2022-09-26T14:50:20.613Z,16.87
2022-09-26T14:51:31.234Z,16.84
2022-09-26T14:52:34.563Z,16.84
2022-09-26T14:54:05.965Z,16.84
2022-09-26T14:55:08.728Z,16.82
2022-09-26T14:56:27.579Z,16.83
2022-09-26T14:57:34.819Z,16.82
2022-09-26T14:58:37.878Z,16.88
2022-09-26T14:59:42.233Z,16.85
2022-09-26T15:00:49.913Z,16.86
2022-09-26T15:02:09.897Z,16.86
2022-09-26T15:03:19.876Z,16.88
2022-09-26T15:04:26.305Z,16.92
2022-09-26T15:05:29.083Z,16.87
2022-09-26T15:06:39.601Z,16.85
2022-09-26T15:07:46.363Z,16.83
2022-09-26T15:08:49.729Z,16.78
2022-09-26T15:10:20.870Z,16.76
2022-09-26T15:11:33.199Z,16.71
2022-09-26T15:12:44.669Z,16.68
2022-09-26T15:13:49.144Z,16.64
2022-09-26T15:15:14.790Z,16.66
2022-09-26T15:16:32.681Z,16.65
2022-09-26T15:17:40.713Z,16.61
2022-09-26T15:19:00.956Z,16.57
2022-09-26T15:20:08.006Z,16.47
2022-09-26T15:21:48.453Z,16.42
2022-09-26T15:22:57.312Z,16.36
2022-09-26T15:24:03.651Z,16.37